createdAt,value
2022-09-11T00:02:09.998Z,13.86
2022-09-11T00:09:05.209Z,13.85
2022-09-11T00:12:27.856Z,13.82
2022-09-11T00:15:44.327Z,13.80
2022-09-11T00:18:56.886Z,13.81
2022-09-11T00:22:21.470Z,13.79
2022-09-11T00:25:42.405Z,13.75
2022-09-11T00:29:07.395Z,13.72
2022-09-11T00:32:28.517Z,13.69
2022-09-11T00:35:40.311Z,13.71
2022-09-11T00:38:52.501Z,13.71
2022-09-11T00:45:44.944Z,13.67
2022-09-11T00:52:42.351Z,13.70
2022-09-11T00:55:59.880Z,13.73
2022-09-11T00:59:21.537Z,13.73
2022-09-11T01:02:35.901Z,13.75
2022-09-11T01:05:49.024Z,13.75
2022-09-11T01:09:00.621Z,13.77
2022-09-11T01:12:18.526Z,13.82
2022-09-11T01:15:35.230Z,13.83
2022-09-11T01:18:53.778Z,13.81
2022-09-11T01:23:07.482Z,13.86
2022-09-11T01:26:50.266Z,13.83
2022-09-11T01:30:12.532Z,13.85
2022-09-11T01:33:29.105Z,13.84
2022-09-11T01:36:48.368Z,13.88
2022-09-11T01:40:06.827Z,13.86
2022-09-11T01:43:23.597Z,13.84
2022-09-11T01:46:39.139Z,13.79
2022-09-11T01:49:56.127Z,13.80
2022-09-11T01:53:12.381Z,13.80
2022-09-11T01:56:30.497Z,13.81
2022-09-11T01:59:47.858Z,13.78
2022-09-11T02:03:04.765Z,13.75
2022-09-11T02:06:25.642Z,13.74
2022-09-11T02:09:44.236Z,13.74
2022-09-11T02:13:02.724Z,13.73
2022-09-11T02:16:20.773Z,13.77
2022-09-11T02:19:34.415Z,13.75
2022-09-11T02:22:46.895Z,13.78
2022-09-11T02:25:58.426Z,13.79
2022-09-11T02:29:10.622Z,13.83
2022-09-11T02:32:22.781Z,13.84
2022-09-11T02:35:40.746Z,13.81
2022-09-11T02:39:02.064Z,13.81
2022-09-11T02:42:28.858Z,13.80
2022-09-11T02:45:52.401Z,13.77
2022-09-11T02:49:12.587Z,13.73
2022-09-11T02:52:33.072Z,13.68
2022-09-11T02:55:57.784Z,13.70
2022-09-11T02:59:17.288Z,13.67
2022-09-11T03:02:36.418Z,13.70
2022-09-11T03:05:57.895Z,13.73
2022-09-11T03:09:18.757Z,13.68
2022-09-11T03:12:31.789Z,13.71
2022-09-11T03:15:43.519Z,13.74
2022-09-11T03:18:56.015Z,13.73
2022-09-11T03:22:09.837Z,13.70
2022-09-11T03:25:23.361Z,13.71
2022-09-11T03:32:17.929Z,13.73
2022-09-11T03:35:32.092Z,13.72
2022-09-11T03:38:56.937Z,13.74
2022-09-11T03:42:10.991Z,13.69
2022-09-11T03:45:25.528Z,13.68
2022-09-11T03:48:37.729Z,13.65
2022-09-11T03:51:49.321Z,13.60
2022-09-11T03:55:00.914Z,13.56
2022-09-11T03:58:13.126Z,13.57
2022-09-11T04:01:26.903Z,13.59
2022-09-11T04:04:50.734Z,13.61
2022-09-11T04:08:03.108Z,13.61
2022-09-11T04:11:16.641Z,13.62
2022-09-11T04:14:29.038Z,13.64
2022-09-11T04:17:44.641Z,13.62
2022-09-11T04:21:08.377Z,13.65
2022-09-11T04:24:20.250Z,13.65
2022-09-11T04:31:12.684Z,13.74
2022-09-11T04:34:26.263Z,13.79
2022-09-11T04:37:48.814Z,13.86
2022-09-11T04:44:43.680Z,13.89
2022-09-11T04:51:39.337Z,13.88
2022-09-11T04:54:51.750Z,13.88
2022-09-11T04:58:14.143Z,13.79
2022-09-11T05:01:26.752Z,13.87
2022-09-11T05:04:42.216Z,13.90
2022-09-11T05:08:07.994Z,13.94
2022-09-11T05:11:23.899Z,13.99
2022-09-11T05:14:38.044Z,13.96
2022-09-11T05:21:32.004Z,14.00
2022-09-11T05:24:53.805Z,14.00
2022-09-11T05:32:01.685Z,14.01
2022-09-11T05:35:15.260Z,14.03
2022-09-11T05:42:10.810Z,14.12
2022-09-11T05:45:26.762Z,14.17
2022-09-11T05:52:20.047Z,14.37
2022-09-11T05:55:34.993Z,14.32
2022-09-11T05:58:59.675Z,14.36
2022-09-11T06:02:15.066Z,14.31
2022-09-11T06:05:28.785Z,14.30
2022-09-11T06:08:44.212Z,14.33
2022-09-11T06:11:56.531Z,14.45
2022-09-11T06:18:51.450Z,14.52
2022-09-11T06:22:14.164Z,14.51
2022-09-11T06:25:36.751Z,14.50
2022-09-11T06:28:57.590Z,14.63
2022-09-11T06:36:04.934Z,14.83
2022-09-11T06:43:00.398Z,15.21
2022-09-11T06:46:15.956Z,15.28
2022-09-11T06:49:28.407Z,15.45
2022-09-11T06:53:00.891Z,15.59
2022-09-11T06:56:19.431Z,15.54
2022-09-11T07:03:12.806Z,15.58
2022-09-11T07:06:43.116Z,15.48
2022-09-11T07:09:55.958Z,15.46
2022-09-11T07:27:55.411Z,15.61
2022-09-11T07:31:20.617Z,15.68
2022-09-11T07:34:31.396Z,15.87
2022-09-11T08:38:26.674Z,15.01
2022-09-11T08:41:48.295Z,15.01
2022-09-11T08:45:19.881Z,15.25
2022-09-11T08:48:43.553Z,15.34
2022-09-11T08:51:57.615Z,15.50
2022-09-11T08:55:13.917Z,15.57
2022-09-11T08:58:31.458Z,15.58
2022-09-11T09:01:49.727Z,15.63
2022-09-11T09:05:18.454Z,15.63
2022-09-11T09:17:50.925Z,15.72
2022-09-11T09:21:09.408Z,15.84
2022-09-11T09:28:43.460Z,15.94
2022-09-11T09:35:26.947Z,15.93
2022-09-11T09:43:19.246Z,15.94
2022-09-11T09:46:40.579Z,15.90
2022-09-11T09:54:11.674Z,16.19
2022-09-11T10:01:55.376Z,16.25
2022-09-11T10:05:34.848Z,16.34
2022-09-11T10:17:48.145Z,16.60
2022-09-11T10:29:32.167Z,16.92
2022-09-11T10:39:48.250Z,17.00
2022-09-11T11:03:24.013Z,17.32
2022-09-11T11:38:30.048Z,17.02
2022-09-11T11:46:03.891Z,17.01
2022-09-11T11:54:03.880Z,16.82
2022-09-11T11:57:22.322Z,16.73
2022-09-11T12:00:55.438Z,16.83
2022-09-11T12:04:14.510Z,16.91
2022-09-11T12:07:33.435Z,17.27
2022-09-11T12:15:07.639Z,17.24
2022-09-11T12:21:43.027Z,17.26
2022-09-11T12:25:03.391Z,17.31
2022-09-11T12:41:26.564Z,18.65
2022-09-11T12:44:50.352Z,18.51
2022-09-11T12:51:30.295Z,18.71
2022-09-11T12:54:46.420Z,18.57
2022-09-11T13:03:03.189Z,18.30
2022-09-11T13:06:33.558Z,18.07
2022-09-11T13:10:04.899Z,17.96
2022-09-11T13:14:09.950Z,18.03
2022-09-11T13:17:30.478Z,17.89
2022-09-11T13:24:34.553Z,17.79
2022-09-11T13:31:52.359Z,17.72
2022-09-11T13:35:11.036Z,17.53
2022-09-11T13:55:26.997Z,16.89
2022-09-11T14:07:57.749Z,17.11
2022-09-11T14:11:15.377Z,17.18
2022-09-11T14:15:04.915Z,17.30
2022-09-11T14:19:00.237Z,17.60
2022-09-11T14:22:31.025Z,17.86
2022-09-11T14:30:11.377Z,17.82
2022-09-11T14:33:29.854Z,17.83
2022-09-11T14:45:20.001Z,17.77
2022-09-11T14:52:45.797Z,17.48
2022-09-11T15:03:57.045Z,17.13
2022-09-11T15:07:19.736Z,17.04
2022-09-11T15:10:33.053Z,16.87
2022-09-11T15:14:15.888Z,16.68
2022-09-11T15:17:22.557Z,16.53
2022-09-11T15:24:16.085Z,16.30
2022-09-11T15:31:08.160Z,16.08
2022-09-11T15:34:30.810Z,16.08
2022-09-11T15:37:42.468Z,16.08
2022-09-11T15:41:00.595Z,16.11
2022-09-11T15:44:20.007Z,16.17
2022-09-11T15:51:20.271Z,16.13
2022-09-11T15:54:44.831Z,16.02
2022-09-11T15:57:58.566Z,15.81
2022-09-11T16:08:45.124Z,15.60
2022-09-11T16:12:05.158Z,15.63
2022-09-11T16:15:18.644Z,15.59
2022-09-11T16:18:43.041Z,15.60
2022-09-11T16:21:56.413Z,15.62
2022-09-11T16:25:08.943Z,15.61
2022-09-11T16:28:31.533Z,15.61
2022-09-11T16:35:34.174Z,15.56
2022-09-11T16:39:01.336Z,15.49
2022-09-11T16:45:58.848Z,15.42
2022-09-11T16:49:14.266Z,15.37
2022-09-11T16:52:26.314Z,15.29
2022-09-11T16:55:46.572Z,15.26
2022-09-11T16:59:00.585Z,15.20
2022-09-11T17:02:15.126Z,15.23
2022-09-11T17:05:35.689Z,15.22
2022-09-11T17:12:12.581Z,15.17
2022-09-11T17:15:28.630Z,15.15
2022-09-11T17:22:31.626Z,15.12
2022-09-11T17:25:46.730Z,15.09
2022-09-11T17:29:01.184Z,15.06
2022-09-11T17:32:29.070Z,15.07
2022-09-11T17:35:35.220Z,15.08
2022-09-11T17:38:49.682Z,15.10
2022-09-11T17:42:01.867Z,15.10
2022-09-11T17:45:16.269Z,15.11
2022-09-11T17:48:28.143Z,15.14
2022-09-11T17:51:51.811Z,15.15
2022-09-11T17:55:04.375Z,15.11
2022-09-11T17:58:16.277Z,15.12
2022-09-11T18:01:30.515Z,15.15
2022-09-11T18:04:43.906Z,15.14
2022-09-11T18:08:07.486Z,15.11
2022-09-11T18:11:19.506Z,15.14
2022-09-11T18:14:31.349Z,15.12
2022-09-11T18:17:43.367Z,15.08
2022-09-11T18:20:56.576Z,15.04
2022-09-11T18:24:12.120Z,15.05
2022-09-11T18:27:33.903Z,15.00
2022-09-11T18:30:56.027Z,14.94
2022-09-11T18:34:08.803Z,14.91
2022-09-11T18:37:22.107Z,14.92
2022-09-11T18:44:04.179Z,14.89
2022-09-11T18:47:28.873Z,14.89
2022-09-11T18:50:42.710Z,14.89
2022-09-11T18:53:57.162Z,14.85
2022-09-11T18:57:13.581Z,14.78
2022-09-11T19:00:29.013Z,14.70
2022-09-11T19:03:53.077Z,14.65
2022-09-11T19:07:14.911Z,14.60
2022-09-11T19:10:26.892Z,14.57
2022-09-11T19:17:26.539Z,14.51
2022-09-11T19:20:38.261Z,14.53
2022-09-11T19:23:53.646Z,14.48
2022-09-11T19:27:14.101Z,14.47
2022-09-11T19:30:25.933Z,14.44
2022-09-11T19:33:54.802Z,14.40
2022-09-11T19:37:07.955Z,14.40
2022-09-11T19:40:22.232Z,14.41
2022-09-11T19:47:16.912Z,14.35
2022-09-11T19:50:31.546Z,14.29
2022-09-11T19:53:44.427Z,14.25
2022-09-11T19:56:57.190Z,14.23
2022-09-11T20:00:24.050Z,14.20
2022-09-11T20:03:36.856Z,14.14
2022-09-11T20:10:00.649Z,14.08
2022-09-11T20:13:22.440Z,14.07
2022-09-11T20:16:36.810Z,14.04
2022-09-11T20:20:02.056Z,14.01
2022-09-11T20:23:28.301Z,14.00
2022-09-11T20:26:41.165Z,13.99
2022-09-11T20:30:02.453Z,13.96
2022-09-11T20:33:17.102Z,13.93
2022-09-11T20:36:30.125Z,13.91
2022-09-11T20:39:42.745Z,13.90
2022-09-11T20:42:54.598Z,13.87
2022-09-11T20:46:14.005Z,13.84
2022-09-11T20:49:37.687Z,13.81
2022-09-11T20:52:51.093Z,13.78
2022-09-11T20:56:09.127Z,13.71
2022-09-11T20:59:21.527Z,13.68
2022-09-11T21:02:41.911Z,13.66
2022-09-11T21:05:53.699Z,13.61
2022-09-11T21:09:08.611Z,13.60
2022-09-11T21:12:27.525Z,13.58
2022-09-11T21:15:39.204Z,13.53
2022-09-11T21:18:57.214Z,13.50
2022-09-11T21:22:20.046Z,13.48
2022-09-11T21:29:15.653Z,13.47
2022-09-11T21:32:28.860Z,13.43
2022-09-11T21:35:41.449Z,13.40
2022-09-11T21:39:00.233Z,13.38
2022-09-11T21:45:52.949Z,13.36
2022-09-11T21:49:05.002Z,13.34
2022-09-11T21:52:17.054Z,13.37
2022-09-11T21:55:28.720Z,13.40
2022-09-11T21:58:40.689Z,13.40
2022-09-11T22:01:52.462Z,13.39
2022-09-11T22:05:04.291Z,13.35
2022-09-11T22:08:18.670Z,13.33
2022-09-11T22:11:30.533Z,13.29
2022-09-11T22:14:44.450Z,13.22
2022-09-11T22:21:36.844Z,13.17
2022-09-11T22:24:50.511Z,13.15
2022-09-11T22:28:01.998Z,13.11
2022-09-11T22:31:16.346Z,13.07
2022-09-11T22:34:28.933Z,13.07
2022-09-11T22:37:40.717Z,13.05
2022-09-11T22:40:57.440Z,13.03
2022-09-11T22:44:09.714Z,13.02
2022-09-11T22:47:21.299Z,13.01
2022-09-11T22:50:33.032Z,12.99
2022-09-11T22:53:44.814Z,12.95
2022-09-11T22:56:56.633Z,12.94
2022-09-11T23:00:22.774Z,12.90
2022-09-11T23:03:34.609Z,12.89
2022-09-11T23:07:00.701Z,12.89
2022-09-11T23:10:13.868Z,12.88
2022-09-11T23:13:25.382Z,12.88
2022-09-11T23:16:36.852Z,12.88
2022-09-11T23:19:48.793Z,12.89
2022-09-11T23:23:00.508Z,12.90
2022-09-11T23:26:12.556Z,12.89
2022-09-11T23:29:24.049Z,12.90
2022-09-11T23:36:18.182Z,12.94
2022-09-11T23:39:30.157Z,12.97
2022-09-11T23:42:41.803Z,13.00
2022-09-11T23:45:53.398Z,13.01
2022-09-11T23:49:06.297Z,13.00
2022-09-11T23:52:18.100Z,13.02
2022-09-11T23:55:29.546Z,13.05
2022-09-11T23:58:41.273Z,13.10
